Time;durP1;ratioP1;P1;durP2;ratioP2;P2;SDS_P1;SDS_P2;PMS_P1;PMS_P2;Temp;Humidity;BMP_temperature;BMP_pressure;BME280_temperature;BME280_humidity;BME280_pressure;Samples;Min_cycle;Max_cycle;Signal;HPM_P1;HPM_P2
2023/01/08 00:02:10;;;;;;;27.93;13.40;;;1.60;99.90;;;;;;5011845;28;20184;-62
2023/01/08 00:04:36;;;;;;;115.63;15.00;;;1.60;99.90;;;;;;5017298;28;20179;-60
2023/01/08 00:07:01;;;;;;;23.63;12.27;;;1.60;99.90;;;;;;5018433;28;20234;-60
2023/01/08 00:09:27;;;;;;;34.60;12.10;;;1.60;99.90;;;;;;5018240;28;20470;-64
2023/01/08 00:11:53;;;;;;;98.43;15.73;;;1.60;99.90;;;;;;5017538;28;20188;-63
2023/01/08 00:14:18;;;;;;;78.90;14.07;;;1.60;99.90;;;;;;5017996;28;20203;-63
2023/01/08 00:16:44;;;;;;;33.47;12.63;;;1.60;99.90;;;;;;5015888;28;20179;-63
2023/01/08 00:19:12;;;;;;;94.60;15.70;;;1.60;99.90;;;;;;5015884;28;20642;-65
2023/01/08 00:21:38;;;;;;;174.67;18.17;;;1.60;99.90;;;;;;5026514;28;20186;-64
2023/01/08 00:24:04;;;;;;;180.93;17.23;;;1.60;99.90;;;;;;5023731;28;20446;-58
2023/01/08 00:26:30;;;;;;;68.63;14.67;;;1.50;99.90;;;;;;5019852;28;20843;-64
2023/01/08 00:28:56;;;;;;;204.07;17.60;;;1.50;99.90;;;;;;5018991;28;20219;-62
2023/01/08 00:31:21;;;;;;;85.30;14.87;;;1.40;99.90;;;;;;5021186;28;20511;-59
2023/01/08 00:33:47;;;;;;;109.20;14.90;;;1.40;99.90;;;;;;5014865;28;20216;-58
2023/01/08 00:36:15;;;;;;;146.30;14.77;;;1.40;99.90;;;;;;5016196;28;20180;-60
2023/01/08 00:38:41;;;;;;;36.27;12.00;;;1.40;99.90;;;;;;5024732;28;20253;-60
2023/01/08 00:41:07;;;;;;;70.20;12.87;;;1.30;99.90;;;;;;5024418;28;20436;-60
2023/01/08 00:43:33;;;;;;;93.93;14.33;;;1.30;99.90;;;;;;5027030;28;20432;-61
2023/01/08 00:45:59;;;;;;;62.33;14.00;;;1.30;99.90;;;;;;5015526;28;20882;-62
2023/01/08 00:48:24;;;;;;;54.07;12.60;;;1.30;99.90;;;;;;5019910;28;20204;-56
2023/01/08 00:50:51;;;;;;;88.57;12.40;;;1.30;99.90;;;;;;5025507;28;20446;-57
2023/01/08 00:53:18;;;;;;;79.67;12.80;;;1.30;99.90;;;;;;5019191;28;20989;-58
2023/01/08 00:55:44;;;;;;;137.00;14.30;;;1.30;99.90;;;;;;5016672;28;20442;-53
2023/01/08 00:58:10;;;;;;;217.40;17.70;;;1.30;99.90;;;;;;5021433;28;20836;-55
2023/01/08 01:00:36;;;;;;;159.33;15.30;;;1.30;99.90;;;;;;5026930;28;20224;-57
2023/01/08 01:03:02;;;;;;;152.10;13.70;;;1.20;99.90;;;;;;5021570;28;20450;-56
2023/01/08 01:05:27;;;;;;;210.23;15.50;;;1.20;99.90;;;;;;5022911;28;20192;-56
2023/01/08 01:07:53;;;;;;;260.90;20.43;;;1.10;99.90;;;;;;5016891;28;20241;-60
2023/01/08 01:10:19;;;;;;;129.23;14.00;;;1.10;99.90;;;;;;5019381;28;20266;-60
2023/01/08 01:12:45;;;;;;;205.20;16.53;;;1.10;99.90;;;;;;5019176;28;20731;-57
2023/01/08 01:15:13;;;;;;;155.07;15.80;;;1.10;99.90;;;;;;5017698;28;20203;-57
2023/01/08 01:17:40;;;;;;;113.63;12.27;;;1.10;99.90;;;;;;5021635;28;20479;-59
2023/01/08 01:20:08;;;;;;;142.37;14.17;;;1.10;99.90;;;;;;5019739;28;20424;-57
2023/01/08 01:22:34;;;;;;;103.57;12.50;;;1.10;99.90;;;;;;5027812;28;20496;-61
2023/01/08 01:25:00;;;;;;;35.73;9.93;;;1.00;99.90;;;;;;5019413;28;20437;-57
2023/01/08 01:27:26;;;;;;;114.53;11.57;;;1.00;99.90;;;;;;5028882;28;20954;-56
2023/01/08 01:29:52;;;;;;;86.30;12.13;;;1.10;99.90;;;;;;5027741;28;20430;-57
2023/01/08 01:32:18;;;;;;;117.47;12.50;;;1.10;99.90;;;;;;5025731;28;20172;-56
2023/01/08 01:34:44;;;;;;;32.90;10.40;;;1.10;99.90;;;;;;5016439;28;21226;-65
2023/01/08 01:37:13;;;;;;;22.50;9.90;;;1.00;99.90;;;;;;5021052;28;20527;-55
2023/01/08 01:39:40;;;;;;;32.37;9.37;;;1.00;99.90;;;;;;5023347;28;20176;-58
2023/01/08 01:42:05;;;;;;;80.47;12.17;;;1.00;99.90;;;;;;5020881;28;20450;-55
2023/01/08 01:44:49;;;;;;;18.03;8.40;;;1.00;99.90;;;;;;5025841;28;20823;-55
2023/01/08 01:47:20;;;;;;;28.80;10.30;;;1.00;99.90;;;;;;5022705;28;20241;-56
2023/01/08 01:49:56;;;;;;;38.77;10.03;;;1.00;99.90;;;;;;5033579;28;20436;-55
2023/01/08 01:52:26;;;;;;;27.87;10.00;;;1.00;99.90;;;;;;5031792;28;20968;-55
2023/01/08 01:54:52;;;;;;;19.83;9.90;;;1.00;99.90;;;;;;5031126;28;20449;-57
2023/01/08 01:57:18;;;;;;;37.23;11.07;;;1.00;99.90;;;;;;5030014;28;20966;-56
2023/01/08 01:59:47;;;;;;;21.20;9.53;;;1.10;99.90;;;;;;5028271;28;20423;-57
2023/01/08 02:02:12;;;;;;;48.53;10.40;;;1.10;99.90;;;;;;5014485;28;20203;-55
2023/01/08 02:04:38;;;;;;;43.93;10.37;;;1.10;99.90;;;;;;5016768;28;20469;-56
2023/01/08 02:07:21;;;;;;;61.40;10.40;;;1.00;99.90;;;;;;5021898;28;20171;-54
2023/01/08 02:10:08;;;;;;;48.37;11.30;;;1.00;99.90;;;;;;5027632;28;20187;-55
2023/01/08 02:12:43;;;;;;;50.43;10.33;;;0.90;99.90;;;;;;5018444;28;20452;-56
2023/01/08 02:15:29;;;;;;;49.67;10.80;;;0.90;99.90;;;;;;5027438;28;20983;-56
2023/01/08 02:18:06;;;;;;;63.90;10.27;;;0.90;99.90;;;;;;5023299;28;20480;-55
2023/01/08 02:20:44;;;;;;;34.90;10.93;;;0.80;99.90;;;;;;5021126;28;20482;-53
2023/01/08 02:23:19;;;;;;;22.23;10.00;;;0.80;99.90;;;;;;5027730;28;20436;-54
2023/01/08 02:26:02;;;;;;;143.23;13.37;;;0.80;99.90;;;;;;5013869;28;20785;-56
2023/01/08 02:28:31;;;;;;;39.93;11.07;;;0.80;99.90;;;;;;5028380;28;20975;-55
2023/01/08 02:30:57;;;;;;;23.33;10.30;;;0.80;99.90;;;;;;5018096;28;20434;-54
2023/01/08 02:33:25;;;;;;;35.90;10.17;;;0.80;99.90;;;;;;5020806;28;20463;-55
2023/01/08 02:36:11;;;;;;;58.43;11.20;;;0.80;99.90;;;;;;5020498;28;20448;-57
2023/01/08 02:38:53;;;;;;;36.77;10.60;;;0.90;99.90;;;;;;5024442;28;20441;-55
2023/01/08 02:41:23;;;;;;;50.43;10.17;;;0.90;99.90;;;;;;5032468;28;20428;-56
2023/01/08 02:43:52;;;;;;;63.03;11.10;;;0.80;99.90;;;;;;5022940;28;20427;-56
2023/01/08 02:46:25;;;;;;;79.83;11.60;;;0.80;99.90;;;;;;5022770;28;20438;-56
2023/01/08 02:48:57;;;;;;;23.93;10.57;;;0.80;99.90;;;;;;5025724;28;20457;-56
2023/01/08 02:51:39;;;;;;;26.00;10.10;;;0.80;99.90;;;;;;5027988;28;20435;-56
2023/01/08 02:54:10;;;;;;;63.77;11.47;;;0.80;99.90;;;;;;5027955;28;20592;-57
2023/01/08 02:56:40;;;;;;;21.17;10.23;;;0.80;99.90;;;;;;5019019;28;20425;-57
2023/01/08 02:59:06;;;;;;;18.53;11.17;;;0.80;99.90;;;;;;5020134;28;20448;-55
2023/01/08 03:01:33;;;;;;;17.73;10.80;;;0.70;99.90;;;;;;5020389;28;20941;-59
2023/01/08 03:04:05;;;;;;;27.27;10.93;;;0.70;99.90;;;;;;5022974;28;20430;-55
2023/01/08 03:06:31;;;;;;;17.33;10.70;;;0.70;99.90;;;;;;5027156;28;20763;-56
2023/01/08 03:08:58;;;;;;;19.33;11.20;;;0.70;99.90;;;;;;5029312;28;20606;-57
2023/01/08 03:11:35;;;;;;;17.80;10.00;;;0.70;99.90;;;;;;5029949;28;20458;-54
2023/01/08 03:14:17;;;;;;;29.93;10.87;;;0.70;99.90;;;;;;5023368;28;20449;-56
2023/01/08 03:16:47;;;;;;;35.63;9.23;;;0.70;99.90;;;;;;5016292;28;20434;-57
2023/01/08 03:19:23;;;;;;;19.20;9.70;;;0.70;99.90;;;;;;5025855;28;20440;-55
2023/01/08 03:21:51;;;;;;;18.30;10.07;;;0.70;99.90;;;;;;5026776;28;20481;-55
2023/01/08 03:24:25;;;;;;;16.53;10.83;;;0.70;99.90;;;;;;5019739;28;20424;-55
2023/01/08 03:26:55;;;;;;;16.20;9.70;;;0.70;99.90;;;;;;5015736;28;20422;-54
2023/01/08 03:29:23;;;;;;;16.63;9.90;;;0.80;99.90;;;;;;5027789;28;20433;-54
2023/01/08 03:31:50;;;;;;;27.90;10.60;;;0.80;99.90;;;;;;5026751;28;20462;-55
2023/01/08 03:34:19;;;;;;;18.10;9.90;;;0.80;99.90;;;;;;5028886;28;20455;-57
2023/01/08 03:36:50;;;;;;;44.17;11.50;;;0.80;99.90;;;;;;5018596;28;21046;-55
2023/01/08 03:39:17;;;;;;;17.90;9.90;;;0.80;99.90;;;;;;5025192;28;20957;-55
2023/01/08 03:41:44;;;;;;;21.00;10.80;;;0.70;99.90;;;;;;5026450;28;20915;-57
2023/01/08 03:44:10;;;;;;;22.93;11.27;;;0.70;99.90;;;;;;5019580;28;20840;-57
2023/01/08 03:46:41;;;;;;;21.30;10.67;;;0.70;99.90;;;;;;5024220;28;20540;-55
2023/01/08 03:49:07;;;;;;;43.33;10.60;;;0.70;99.90;;;;;;5027089;28;20188;-56
2023/01/08 03:51:45;;;;;;;16.43;10.13;;;0.70;99.90;;;;;;5019018;28;20773;-56
2023/01/08 03:54:15;;;;;;;21.03;9.70;;;0.60;99.90;;;;;;5027053;28;20471;-58
2023/01/08 03:56:41;;;;;;;15.63;9.67;;;0.60;99.90;;;;;;5026495;28;20442;-57
2023/01/08 03:59:07;;;;;;;17.53;10.60;;;0.60;99.90;;;;;;5022545;28;20440;-55
2023/01/08 04:01:32;;;;;;;31.47;11.37;;;0.60;99.90;;;;;;5018289;28;20176;-55
2023/01/08 04:03:58;;;;;;;20.50;11.07;;;0.60;99.90;;;;;;5028415;28;20237;-55
2023/01/08 04:06:23;;;;;;;18.70;11.17;;;0.60;99.90;;;;;;5017613;28;20237;-55
2023/01/08 04:08:49;;;;;;;17.40;10.67;;;0.60;99.90;;;;;;5018054;28;20192;-54
2023/01/08 04:11:15;;;;;;;22.03;10.90;;;0.70;99.90;;;;;;5022892;28;20204;-55
2023/01/08 04:13:40;;;;;;;16.23;9.33;;;0.70;99.90;;;;;;5013115;28;20735;-54
2023/01/08 04:16:07;;;;;;;16.63;10.50;;;0.70;99.90;;;;;;5021612;28;20193;-56
2023/01/08 04:18:33;;;;;;;16.00;10.50;;;0.80;99.90;;;;;;5022501;28;20289;-55
2023/01/08 04:20:58;;;;;;;19.83;11.10;;;0.80;99.90;;;;;;5026913;28;20509;-55
2023/01/08 04:23:25;;;;;;;20.00;11.30;;;0.80;99.90;;;;;;5052986;22;20505;-56
2023/01/08 04:25:51;;;;;;;20.30;11.27;;;0.80;99.90;;;;;;5042748;28;20876;-56
2023/01/08 04:28:17;;;;;;;17.13;10.27;;;0.80;99.90;;;;;;5045764;28;20912;-56
2023/01/08 04:30:42;;;;;;;21.33;11.73;;;0.90;99.90;;;;;;5032353;28;20471;-56
2023/01/08 04:33:08;;;;;;;17.53;10.50;;;0.90;99.90;;;;;;5038294;28;20170;-55
2023/01/08 04:35:34;;;;;;;20.57;11.27;;;0.90;99.90;;;;;;5031734;28;20241;-56
2023/01/08 04:37:59;;;;;;;19.20;10.43;;;0.90;99.90;;;;;;5025742;28;20244;-55
2023/01/08 04:40:25;;;;;;;16.97;10.70;;;0.90;99.90;;;;;;5035838;28;20199;-58
2023/01/08 04:42:50;;;;;;;17.73;10.03;;;1.00;99.90;;;;;;5043738;28;20180;-57
2023/01/08 04:45:16;;;;;;;21.30;11.13;;;1.00;99.90;;;;;;5037132;28;20225;-58
2023/01/08 04:47:42;;;;;;;15.03;9.83;;;1.00;99.90;;;;;;5044975;28;20246;-56
2023/01/08 04:50:08;;;;;;;19.63;11.00;;;1.10;99.90;;;;;;5020992;28;20206;-56
2023/01/08 04:52:34;;;;;;;17.87;10.60;;;1.10;99.90;;;;;;5031284;28;20187;-57
2023/01/08 04:54:59;;;;;;;16.93;10.90;;;1.10;99.90;;;;;;5021167;28;20508;-56
2023/01/08 04:57:25;;;;;;;16.83;10.43;;;1.10;99.90;;;;;;5018888;28;20962;-56
2023/01/08 04:59:50;;;;;;;15.23;9.57;;;1.10;99.90;;;;;;5023702;28;20179;-55
2023/01/08 05:02:16;;;;;;;16.20;9.27;;;1.10;99.90;;;;;;5027436;28;20181;-56
2023/01/08 05:04:41;;;;;;;14.13;9.70;;;1.10;99.90;;;;;;5038090;28;20269;-58
2023/01/08 05:07:07;;;;;;;14.57;9.87;;;1.10;99.90;;;;;;5045613;28;20177;-58
2023/01/08 05:09:33;;;;;;;13.87;9.03;;;1.10;99.90;;;;;;5039887;28;20202;-57
2023/01/08 05:11:58;;;;;;;17.30;10.17;;;1.10;99.90;;;;;;5056320;28;20194;-58
2023/01/08 05:14:24;;;;;;;13.80;8.93;;;1.10;99.90;;;;;;5039800;28;20218;-57
2023/01/08 05:16:50;;;;;;;14.93;8.70;;;1.00;99.90;;;;;;5016819;28;20248;-55
2023/01/08 05:19:15;;;;;;;16.03;9.70;;;1.10;99.90;;;;;;5020715;28;20273;-56
2023/01/08 05:21:41;;;;;;;14.83;8.63;;;1.10;99.90;;;;;;5025565;28;20266;-56
2023/01/08 05:24:08;;;;;;;16.13;9.83;;;1.00;99.90;;;;;;5019070;28;20268;-56
2023/01/08 05:26:34;;;;;;;14.40;9.27;;;1.10;99.90;;;;;;5027885;28;20279;-55
2023/01/08 05:29:00;;;;;;;14.70;9.50;;;1.10;99.90;;;;;;5021525;28;20430;-55
2023/01/08 05:31:26;;;;;;;17.90;9.60;;;1.10;99.90;;;;;;5031860;28;20434;-56
2023/01/08 05:33:51;;;;;;;17.37;10.27;;;1.10;99.90;;;;;;5025123;28;20671;-56
2023/01/08 05:36:17;;;;;;;13.70;9.07;;;1.10;99.90;;;;;;5024070;28;20674;-56
2023/01/08 05:38:43;;;;;;;17.37;9.83;;;1.20;99.90;;;;;;5013685;28;20183;-56
2023/01/08 05:41:09;;;;;;;20.00;12.57;;;1.20;99.90;;;;;;5029191;28;20522;-56
2023/01/08 05:43:35;;;;;;;20.60;10.37;;;1.20;99.90;;;;;;5025398;28;20253;-60
2023/01/08 05:46:02;;;;;;;17.37;10.67;;;1.20;99.90;;;;;;5018801;28;20440;-55
2023/01/08 05:48:28;;;;;;;15.60;9.50;;;1.30;99.90;;;;;;5026487;28;20431;-57
2023/01/08 05:50:54;;;;;;;17.47;10.30;;;1.30;99.90;;;;;;5033491;28;20437;-56
2023/01/08 05:53:20;;;;;;;18.20;9.47;;;1.40;99.90;;;;;;5032688;28;20446;-58
2023/01/08 05:55:46;;;;;;;19.27;11.30;;;1.40;99.90;;;;;;5039491;28;20209;-56
2023/01/08 05:58:12;;;;;;;16.10;9.67;;;1.40;99.90;;;;;;5030891;28;20186;-56
2023/01/08 06:00:38;;;;;;;18.23;10.13;;;1.50;99.90;;;;;;5022834;28;20874;-56
2023/01/08 06:03:04;;;;;;;17.83;10.73;;;1.50;99.90;;;;;;5026392;28;20179;-56
2023/01/08 06:05:31;;;;;;;17.23;10.20;;;1.50;99.90;;;;;;5021636;28;20469;-55
2023/01/08 06:07:57;;;;;;;16.03;10.30;;;1.50;99.90;;;;;;5021882;28;20431;-56
2023/01/08 06:10:22;;;;;;;13.37;8.57;;;1.50;99.90;;;;;;5012855;28;20450;-57
2023/01/08 06:12:48;;;;;;;17.67;9.90;;;1.50;99.90;;;;;;5020409;28;20500;-55
2023/01/08 06:15:14;;;;;;;17.93;9.70;;;1.60;99.90;;;;;;5014223;28;20210;-57
2023/01/08 06:17:41;;;;;;;15.70;9.80;;;1.60;99.90;;;;;;5016453;28;20256;-56
2023/01/08 06:20:07;;;;;;;15.90;9.47;;;1.60;99.90;;;;;;5023308;28;20183;-55
2023/01/08 06:22:33;;;;;;;16.10;9.20;;;1.60;99.90;;;;;;5016286;28;20542;-57
2023/01/08 06:24:59;;;;;;;14.93;9.23;;;1.60;99.90;;;;;;5031230;28;20481;-55
2023/01/08 06:27:24;;;;;;;15.10;9.23;;;1.70;99.90;;;;;;5040694;28;20472;-56
2023/01/08 06:29:50;;;;;;;19.83;9.57;;;1.70;99.90;;;;;;5027709;28;20184;-57
2023/01/08 06:32:15;;;;;;;17.77;11.00;;;1.60;99.90;;;;;;5035683;28;20549;-58
2023/01/08 06:34:41;;;;;;;17.47;10.23;;;1.60;99.90;;;;;;5045412;28;20382;-58
2023/01/08 06:37:07;;;;;;;12.53;9.00;;;1.60;99.90;;;;;;5043536;28;20184;-57
2023/01/08 06:39:32;;;;;;;12.33;8.90;;;1.60;99.90;;;;;;5029536;28;20174;-57
2023/01/08 06:41:58;;;;;;;15.90;9.33;;;1.70;99.90;;;;;;5030528;28;20179;-57
2023/01/08 06:44:24;;;;;;;16.00;9.50;;;1.70;99.90;;;;;;5039639;28;20355;-55
2023/01/08 06:46:50;;;;;;;19.30;10.57;;;1.70;99.90;;;;;;5027998;28;20180;-55
2023/01/08 06:49:16;;;;;;;15.37;10.10;;;1.80;99.90;;;;;;5021877;28;20601;-56
2023/01/08 06:51:42;;;;;;;15.27;9.10;;;1.70;99.90;;;;;;5023332;28;20989;-56
2023/01/08 06:54:08;;;;;;;15.23;9.07;;;1.70;99.90;;;;;;5025822;28;20477;-58
2023/01/08 06:56:34;;;;;;;16.00;9.60;;;1.80;99.90;;;;;;5031912;28;20434;-58
2023/01/08 06:58:59;;;;;;;15.53;9.80;;;1.80;99.90;;;;;;5049010;28;20338;-62
2023/01/08 07:01:25;;;;;;;15.03;8.83;;;1.80;99.90;;;;;;5048084;28;20242;-60
2023/01/08 07:03:50;;;;;;;18.40;8.73;;;1.80;99.90;;;;;;5038984;28;20207;-56
2023/01/08 07:06:19;;;;;;;13.10;9.27;;;1.80;99.90;;;;;;5016406;28;20197;-56
2023/01/08 07:08:45;;;;;;;15.27;9.37;;;1.80;99.90;;;;;;5020576;28;20273;-56
2023/01/08 07:11:12;;;;;;;13.60;8.50;;;1.80;99.90;;;;;;5019562;28;20430;-55
2023/01/08 07:13:37;;;;;;;15.10;8.37;;;1.80;99.90;;;;;;5037377;28;20430;-57
2023/01/08 07:16:11;;;;;;;13.97;9.07;;;1.80;99.90;;;;;;5020020;28;20430;-58
2023/01/08 07:18:38;;;;;;;13.80;9.30;;;1.80;99.90;;;;;;5020845;28;20186;-56
2023/01/08 07:21:04;;;;;;;13.40;9.07;;;1.80;99.90;;;;;;5022541;28;20438;-56
2023/01/08 07:23:30;;;;;;;14.40;9.03;;;1.80;99.90;;;;;;5038671;28;20511;-57
2023/01/08 07:26:01;;;;;;;12.47;8.20;;;1.80;99.90;;;;;;5019180;28;20465;-56
2023/01/08 07:28:27;;;;;;;15.70;9.20;;;1.90;99.90;;;;;;5022863;28;20469;-56
2023/01/08 07:30:52;;;;;;;17.03;10.50;;;1.90;99.90;;;;;;5010959;28;21229;-57
2023/01/08 07:33:18;;;;;;;14.60;8.73;;;1.90;99.90;;;;;;5000814;28;20542;-58
2023/01/08 07:35:53;;;;;;;17.50;10.17;;;1.90;99.90;;;;;;5010345;28;20310;-54
2023/01/08 07:38:19;;;;;;;17.07;9.93;;;1.90;99.90;;;;;;5011090;28;20195;-56
2023/01/08 07:40:44;;;;;;;17.20;9.63;;;1.90;99.90;;;;;;5007750;28;20441;-56
2023/01/08 07:43:11;;;;;;;16.70;10.43;;;1.90;99.90;;;;;;5014730;28;20211;-64
2023/01/08 07:45:37;;;;;;;19.30;10.13;;;1.90;99.90;;;;;;5008746;28;20190;-57
2023/01/08 07:48:03;;;;;;;16.93;10.07;;;2.00;99.90;;;;;;5007622;28;20436;-56
2023/01/08 07:50:29;;;;;;;17.10;10.23;;;2.00;99.90;;;;;;5011642;28;21195;-58
2023/01/08 07:53:01;;;;;;;15.50;10.00;;;2.00;99.90;;;;;;5008481;28;20512;-59
2023/01/08 07:55:29;;;;;;;17.97;10.97;;;2.10;99.90;;;;;;5013419;28;20586;-59
2023/01/08 07:57:55;;;;;;;18.43;11.80;;;2.10;99.90;;;;;;5011515;28;20434;-57
2023/01/08 08:00:21;;;;;;;19.03;11.80;;;2.10;99.90;;;;;;5001532;28;21000;-50
2023/01/08 08:02:47;;;;;;;17.07;10.37;;;2.10;99.90;;;;;;5004753;28;20189;-56
2023/01/08 08:05:12;;;;;;;14.63;9.77;;;2.10;99.90;;;;;;5004877;28;20504;-57
2023/01/08 08:07:38;;;;;;;15.57;9.93;;;2.20;99.90;;;;;;5009133;28;20241;-58
2023/01/08 08:10:04;;;;;;;17.53;10.43;;;2.20;99.90;;;;;;5016075;28;20438;-58
2023/01/08 08:12:31;;;;;;;14.57;9.77;;;2.20;99.90;;;;;;5008326;28;20184;-60
2023/01/08 08:14:56;;;;;;;15.70;10.73;;;2.20;99.90;;;;;;5009434;28;20469;-57
2023/01/08 08:17:22;;;;;;;19.57;11.00;;;2.20;99.90;;;;;;5031455;28;20929;-58
2023/01/08 08:19:48;;;;;;;17.13;10.80;;;2.20;99.90;;;;;;5010697;28;20237;-59
2023/01/08 08:22:13;;;;;;;19.13;10.20;;;2.20;99.90;;;;;;5008245;28;20210;-59
2023/01/08 08:24:39;;;;;;;20.80;11.87;;;2.20;99.90;;;;;;5011976;28;20223;-60
2023/01/08 08:27:05;;;;;;;18.53;11.03;;;2.20;99.90;;;;;;5019441;28;20188;-59
2023/01/08 08:29:30;;;;;;;20.83;10.97;;;2.30;99.90;;;;;;5023719;28;20554;-59
2023/01/08 08:31:56;;;;;;;17.80;11.10;;;2.30;99.90;;;;;;5032752;28;20684;-58
2023/01/08 08:34:22;;;;;;;21.43;12.60;;;2.30;99.90;;;;;;5018935;28;20261;-61
2023/01/08 08:36:48;;;;;;;19.13;11.30;;;2.30;99.90;;;;;;5013403;28;20191;-60
2023/01/08 08:39:14;;;;;;;18.23;11.00;;;2.30;99.90;;;;;;5026762;28;20192;-60
2023/01/08 08:41:41;;;;;;;16.10;9.77;;;2.40;99.90;;;;;;5030119;28;20437;-60
2023/01/08 08:44:07;;;;;;;16.60;10.40;;;2.40;99.90;;;;;;5012438;28;20203;-59
2023/01/08 08:46:33;;;;;;;16.00;10.23;;;2.40;99.90;;;;;;5015216;28;20508;-60
2023/01/08 08:48:59;;;;;;;18.00;10.90;;;2.40;99.90;;;;;;5022057;28;20441;-57
2023/01/08 08:51:25;;;;;;;21.17;11.40;;;2.50;99.90;;;;;;5038921;28;20810;-58
2023/01/08 08:53:51;;;;;;;24.43;12.10;;;2.50;99.90;;;;;;5020236;28;20249;-59
2023/01/08 08:56:17;;;;;;;22.43;14.27;;;2.60;99.90;;;;;;5028215;28;20202;-59
2023/01/08 08:58:44;;;;;;;19.67;11.60;;;2.60;99.90;;;;;;5014829;28;20184;-58
2023/01/08 09:01:09;;;;;;;16.07;11.27;;;2.60;99.90;;;;;;5017536;28;20423;-59
2023/01/08 09:03:35;;;;;;;15.40;10.80;;;2.60;99.90;;;;;;5007309;28;20504;-61
2023/01/08 09:06:01;;;;;;;15.60;10.80;;;2.70;99.90;;;;;;5020592;28;20213;-60
2023/01/08 09:08:27;;;;;;;18.03;10.93;;;2.70;99.90;;;;;;5010925;28;20443;-58
2023/01/08 09:10:52;;;;;;;17.90;10.53;;;2.70;99.90;;;;;;5004794;28;20545;-59
2023/01/08 09:13:18;;;;;;;16.60;10.40;;;2.80;99.90;;;;;;5013799;28;20180;-59
2023/01/08 09:15:44;;;;;;;16.77;10.53;;;2.80;99.90;;;;;;5019625;28;20217;-58
2023/01/08 09:18:09;;;;;;;15.80;9.70;;;2.80;99.90;;;;;;5020231;28;20262;-58
2023/01/08 09:20:36;;;;;;;15.10;10.47;;;2.80;99.90;;;;;;5012443;28;20183;-59
2023/01/08 09:23:02;;;;;;;19.00;11.63;;;2.90;99.90;;;;;;5012445;28;20218;-58
2023/01/08 09:25:28;;;;;;;20.50;12.10;;;2.90;99.90;;;;;;5024818;28;21243;-59
2023/01/08 09:27:59;;;;;;;21.47;12.67;;;2.90;99.90;;;;;;5018389;28;20450;-57
2023/01/08 09:30:25;;;;;;;28.43;12.70;;;3.00;99.90;;;;;;5018394;28;20443;-57
2023/01/08 09:32:54;;;;;;;27.60;13.73;;;3.00;99.90;;;;;;5014631;28;20481;-57
2023/01/08 09:35:20;;;;;;;26.00;14.10;;;3.00;99.90;;;;;;5012491;28;20239;-58
2023/01/08 09:37:50;;;;;;;20.97;13.67;;;3.00;99.90;;;;;;5016674;28;20970;-59
2023/01/08 09:40:15;;;;;;;28.87;14.43;;;3.10;99.90;;;;;;5020512;28;20659;-60
2023/01/08 09:42:41;;;;;;;21.00;13.83;;;3.10;99.90;;;;;;5013211;28;20436;-59
2023/01/08 09:45:18;;;;;;;21.67;14.30;;;3.10;99.90;;;;;;5027069;28;20306;-59
2023/01/08 09:47:44;;;;;;;25.37;15.10;;;3.20;99.90;;;;;;5024536;28;20656;-58
2023/01/08 09:50:13;;;;;;;25.70;15.60;;;3.20;99.90;;;;;;5014034;28;20441;-58
2023/01/08 09:52:39;;;;;;;22.97;14.73;;;3.30;99.90;;;;;;5016611;28;20256;-58
2023/01/08 09:55:13;;;;;;;23.67;13.70;;;3.30;99.90;;;;;;5014714;28;21248;-58
2023/01/08 09:57:38;;;;;;;27.17;15.73;;;3.40;99.90;;;;;;5020611;28;20207;-57
2023/01/08 10:00:21;;;;;;;25.60;15.30;;;3.50;99.90;;;;;;5023195;28;20437;-60
2023/01/08 10:02:47;;;;;;;21.73;12.60;;;3.50;99.90;;;;;;5026982;28;20176;-58
2023/01/08 10:05:15;;;;;;;23.37;13.20;;;3.60;99.90;;;;;;5035668;28;20447;-61
2023/01/08 10:07:43;;;;;;;23.13;14.17;;;3.70;99.90;;;;;;5036435;28;20443;-60
2023/01/08 10:10:24;;;;;;;23.60;13.97;;;3.70;99.90;;;;;;5037327;28;20431;-61
2023/01/08 10:12:50;;;;;;;23.83;15.33;;;3.80;99.90;;;;;;5035555;28;20667;-61
2023/01/08 10:15:18;;;;;;;24.60;14.20;;;3.80;99.90;;;;;;5016145;28;20553;-58
2023/01/08 10:17:46;;;;;;;26.47;15.60;;;3.90;99.90;;;;;;5010177;28;20954;-57
2023/01/08 10:20:18;;;;;;;21.70;14.20;;;3.90;99.90;;;;;;5012673;28;20483;-58
2023/01/08 10:22:44;;;;;;;21.77;12.97;;;4.00;99.90;;;;;;5025384;28;20431;-58
2023/01/08 10:25:19;;;;;;;23.83;12.93;;;4.10;99.90;;;;;;5014449;28;20554;-56
2023/01/08 10:27:59;;;;;;;22.60;12.97;;;4.20;99.90;;;;;;5015082;28;20426;-62
2023/01/08 10:30:37;;;;;;;17.57;12.00;;;4.30;99.90;;;;;;5007833;28;20853;-57
2023/01/08 10:33:13;;;;;;;23.67;14.17;;;4.30;99.90;;;;;;5031415;28;20439;-57
2023/01/08 10:35:41;;;;;;;20.50;13.17;;;4.40;99.90;;;;;;5015301;28;20561;-57
2023/01/08 10:38:22;;;;;;;23.33;14.13;;;4.50;99.90;;;;;;5019382;28;20446;-56
2023/01/08 10:40:48;;;;;;;25.30;13.60;;;4.50;99.90;;;;;;5014805;28;20634;-57
2023/01/08 10:43:16;;;;;;;20.87;12.10;;;4.60;99.90;;;;;;5011602;28;20488;-58
2023/01/08 10:45:43;;;;;;;18.83;11.20;;;4.60;99.90;;;;;;5010303;28;20463;-59
2023/01/08 10:48:17;;;;;;;18.77;11.90;;;4.70;99.90;;;;;;4996985;28;20538;-59
2023/01/08 10:50:43;;;;;;;19.40;10.93;;;4.80;99.90;;;;;;5008591;28;20541;-58
2023/01/08 10:53:26;;;;;;;14.10;8.20;;;4.80;99.90;;;;;;5003990;28;20519;-57
2023/01/08 10:56:03;;;;;;;16.23;8.53;;;4.90;99.90;;;;;;5012316;28;20257;-58
2023/01/08 10:58:39;;;;;;;10.67;7.30;;;4.90;99.90;;;;;;5021503;28;20908;-59
2023/01/08 11:01:17;;;;;;;12.00;7.20;;;5.00;99.90;;;;;;5026321;28;20438;-57
2023/01/08 11:03:49;;;;;;;10.17;6.90;;;5.00;99.90;;;;;;5025227;28;20455;-56
2023/01/08 11:06:22;;;;;;;9.53;6.00;;;5.00;99.90;;;;;;5010792;28;20463;-61
2023/01/08 11:09:03;;;;;;;9.17;6.50;;;5.10;99.90;;;;;;5008017;28;20512;-63
2023/01/08 11:11:36;;;;;;;8.40;5.73;;;5.10;99.90;;;;;;5017827;28;20438;-56
2023/01/08 11:14:38;;;;;;;8.30;4.97;;;5.10;99.90;;;;;;5016363;28;20463;-56
2023/01/08 11:17:11;;;;;;;6.83;4.90;;;5.20;99.90;;;;;;5013671;28;20431;-60
2023/01/08 11:19:38;;;;;;;7.10;5.03;;;5.20;99.90;;;;;;5024888;28;20423;-60
2023/01/08 11:22:24;;;;;;;6.30;5.40;;;5.20;99.90;;;;;;5025774;28;20541;-62
2023/01/08 11:24:52;;;;;;;7.67;5.43;;;5.30;99.90;;;;;;5146260;22;20441;-59
2023/01/08 11:27:25;;;;;;;8.37;6.10;;;5.30;99.90;;;;;;5053858;28;20440;-56
2023/01/08 11:30:09;;;;;;;8.43;5.37;;;5.30;99.90;;;;;;5059805;28;20508;-59
2023/01/08 11:32:47;;;;;;;9.10;6.17;;;5.30;99.90;;;;;;5062254;28;20424;-60
2023/01/08 11:35:25;;;;;;;8.57;6.10;;;5.30;99.90;;;;;;5056613;28;20468;-61
2023/01/08 11:37:57;;;;;;;15.53;8.60;;;5.30;99.90;;;;;;5050034;28;20966;-58
2023/01/08 11:40:57;;;;;;;17.57;10.97;;;5.40;99.90;;;;;;5056749;28;20859;-58
2023/01/08 11:43:29;;;;;;;19.97;11.57;;;5.40;99.90;;;;;;5042308;28;20442;-62
2023/01/08 11:45:57;;;;;;;15.10;9.90;;;5.40;99.90;;;;;;5057678;28;20437;-61
2023/01/08 11:48:30;;;;;;;20.00;12.03;;;5.50;99.90;;;;;;5056791;28;20437;-64
2023/01/08 11:51:23;;;;;;;16.50;10.93;;;5.50;99.90;;;;;;5046413;28;20459;-62
2023/01/08 11:53:48;;;;;;;13.53;9.80;;;5.50;99.90;;;;;;5053142;28;20429;-61
2023/01/08 11:56:35;;;;;;;13.47;9.30;;;5.60;99.90;;;;;;5053706;28;20974;-61
2023/01/08 11:59:25;;;;;;;12.07;8.10;;;5.60;99.90;;;;;;5052956;28;20550;-60
2023/01/08 12:02:21;;;;;;;12.30;8.43;;;5.60;99.90;;;;;;5056375;28;20428;-63
2023/01/08 12:05:24;;;;;;;29.70;15.33;;;5.70;99.90;;;;;;5052436;28;20431;-63
2023/01/08 12:08:04;;;;;;;24.17;13.97;;;5.70;99.90;;;;;;5058537;28;20447;-62
2023/01/08 12:10:52;;;;;;;24.60;11.30;;;5.70;99.90;;;;;;5049650;28;20775;-63
2023/01/08 12:13:35;;;;;;;14.83;10.00;;;5.70;99.90;;;;;;5053683;28;20432;-60
2023/01/08 12:16:28;;;;;;;12.53;8.60;;;5.70;99.90;;;;;;5050028;28;20580;-59
2023/01/08 12:19:31;;;;;;;17.20;10.83;;;5.70;99.90;;;;;;5057699;28;20437;-59
2023/01/08 12:22:17;;;;;;;10.67;7.20;;;5.80;99.90;;;;;;5054647;28;20425;-61
2023/01/08 12:25:12;;;;;;;10.50;6.13;;;5.80;99.90;;;;;;5051873;28;20485;-61
2023/01/08 12:28:05;;;;;;;7.43;6.23;;;5.80;99.90;;;;;;5033688;28;20566;-62
2023/01/08 12:30:30;;;;;;;9.30;6.70;;;5.80;99.90;;;;;;5049135;28;20462;-60
2023/01/08 12:33:33;;;;;;;16.97;6.40;;;5.90;99.90;;;;;;5048417;28;20433;-59
2023/01/08 12:36:04;;;;;;;11.63;6.27;;;5.90;99.90;;;;;;5055366;28;20213;-60
2023/01/08 12:38:34;;;;;;;23.00;12.57;;;5.90;99.90;;;;;;5053994;28;20436;-59
2023/01/08 12:41:08;;;;;;;15.40;11.27;;;5.90;99.90;;;;;;5058399;28;20965;-61
2023/01/08 12:43:56;;;;;;;20.90;14.47;;;5.90;99.90;;;;;;5048796;28;20433;-57
2023/01/08 12:46:23;;;;;;;23.33;14.53;;;6.00;99.90;;;;;;5056310;28;20445;-57
2023/01/08 12:48:52;;;;;;;25.47;14.80;;;6.00;99.90;;;;;;5049225;28;20437;-58
2023/01/08 12:51:26;;;;;;;11.70;9.30;;;6.10;99.90;;;;;;5047142;28;20517;-61
2023/01/08 12:54:16;;;;;;;13.50;9.40;;;6.20;99.90;;;;;;5051840;28;20474;-62